createdAt,value
2022-08-19T00:01:39.133Z,19.54
2022-08-19T00:04:41.395Z,19.50
2022-08-19T00:07:44.047Z,19.46
2022-08-19T00:10:46.999Z,19.43
2022-08-19T00:13:51.106Z,19.39
2022-08-19T00:16:55.540Z,19.34
2022-08-19T00:19:57.523Z,19.30
2022-08-19T00:23:03.133Z,19.27
2022-08-19T00:26:05.989Z,19.25
2022-08-19T00:29:10.002Z,19.21
2022-08-19T00:32:11.879Z,19.19
2022-08-19T00:35:15.586Z,19.14
2022-08-19T00:38:17.277Z,19.10
2022-08-19T00:41:37.397Z,19.02
2022-08-19T00:44:42.339Z,18.89
2022-08-19T00:47:46.023Z,18.81
2022-08-19T00:50:52.212Z,18.73
2022-08-19T00:53:56.965Z,18.67
2022-08-19T00:57:00.446Z,18.59
2022-08-19T01:00:06.911Z,18.57
2022-08-19T01:03:11.889Z,18.55
2022-08-19T01:06:19.850Z,18.52
2022-08-19T01:09:23.053Z,18.46
2022-08-19T01:12:25.004Z,18.43
2022-08-19T01:15:31.475Z,18.43
2022-08-19T01:18:37.184Z,18.42
2022-08-19T01:21:45.587Z,18.40
2022-08-19T01:24:49.972Z,18.37
2022-08-19T01:27:53.614Z,18.35
2022-08-19T01:30:56.394Z,18.35
2022-08-19T01:33:59.501Z,18.34
2022-08-19T01:37:03.257Z,18.34
2022-08-19T01:40:09.300Z,18.29
2022-08-19T01:43:11.585Z,18.20
2022-08-19T01:46:13.935Z,18.14
2022-08-19T01:49:18.019Z,18.06
2022-08-19T01:52:20.789Z,17.98
2022-08-19T01:55:24.870Z,17.92
2022-08-19T01:58:31.420Z,17.89
2022-08-19T02:01:33.712Z,17.87
2022-08-19T02:04:36.695Z,17.87
2022-08-19T02:07:41.306Z,17.73
2022-08-19T02:10:44.690Z,17.69
2022-08-19T02:13:46.539Z,17.69
2022-08-19T02:16:49.009Z,17.73
2022-08-19T02:19:51.260Z,17.78
2022-08-19T02:22:53.581Z,17.83
2022-08-19T02:25:55.775Z,17.87
2022-08-19T02:28:57.655Z,17.90
2022-08-19T02:31:59.567Z,17.90
2022-08-19T02:35:01.840Z,17.91
2022-08-19T02:38:22.475Z,17.92
2022-08-19T02:41:27.969Z,17.91
2022-08-19T02:44:32.009Z,17.91
2022-08-19T02:47:34.932Z,17.89
2022-08-19T02:50:41.057Z,17.86
2022-08-19T02:53:55.557Z,17.84
2022-08-19T02:56:57.318Z,17.82
2022-08-19T02:59:59.711Z,17.81
2022-08-19T03:03:01.493Z,17.78
2022-08-19T03:06:06.115Z,17.73
2022-08-19T03:09:08.031Z,17.70
2022-08-19T03:12:11.332Z,17.70
2022-08-19T03:15:13.178Z,17.67
2022-08-19T03:18:15.829Z,17.62
2022-08-19T03:21:22.413Z,17.58
2022-08-19T03:24:24.794Z,17.54
2022-08-19T03:27:29.061Z,17.52
2022-08-19T03:30:36.147Z,17.40
2022-08-19T03:33:39.681Z,17.21
2022-08-19T03:36:41.993Z,17.12
2022-08-19T03:39:44.085Z,17.08
2022-08-19T03:42:49.105Z,17.07
2022-08-19T03:46:01.329Z,17.07
2022-08-19T03:49:08.542Z,17.05
2022-08-19T03:52:10.330Z,17.07
2022-08-19T03:55:12.393Z,17.10
2022-08-19T03:58:14.313Z,17.14
2022-08-19T04:01:19.073Z,17.16
2022-08-19T04:04:20.809Z,17.18
2022-08-19T04:07:22.685Z,17.21
2022-08-19T04:10:25.224Z,17.25
2022-08-19T04:13:27.326Z,17.28
2022-08-19T04:16:35.092Z,17.34
2022-08-19T04:19:37.991Z,17.42
2022-08-19T04:22:39.657Z,17.52
2022-08-19T04:25:43.696Z,17.64
2022-08-19T04:28:45.685Z,17.73
2022-08-19T04:31:47.660Z,17.78
2022-08-19T04:35:02.460Z,17.90
2022-08-19T04:38:12.070Z,18.04
2022-08-19T04:41:32.243Z,18.17
2022-08-19T04:44:36.256Z,18.28
2022-08-19T04:47:48.241Z,18.35
2022-08-19T04:50:59.921Z,18.46
2022-08-19T04:54:03.188Z,18.57
2022-08-19T04:57:07.796Z,18.68
2022-08-19T05:00:11.919Z,18.81
2022-08-19T05:03:14.499Z,18.92
2022-08-19T05:06:19.286Z,19.07
2022-08-19T05:09:22.809Z,19.28
2022-08-19T05:12:29.197Z,19.50
2022-08-19T05:15:32.234Z,19.72
2022-08-19T05:18:53.208Z,19.96
2022-08-19T05:22:13.770Z,20.38
2022-08-19T05:25:20.274Z,20.77
2022-08-19T05:28:22.365Z,21.33
2022-08-19T05:31:24.183Z,22.17
2022-08-19T05:34:27.417Z,22.73
2022-08-19T05:37:29.606Z,23.25
2022-08-19T05:40:31.337Z,23.78
2022-08-19T05:43:33.678Z,24.20
2022-08-19T05:46:35.924Z,24.51
2022-08-19T05:49:38.632Z,24.68
2022-08-19T05:52:43.737Z,24.69
2022-08-19T05:55:52.187Z,25.03
2022-08-19T05:58:55.289Z,25.34
2022-08-19T06:02:01.766Z,25.69
2022-08-19T06:05:08.048Z,25.86
2022-08-19T06:08:09.743Z,26.21
2022-08-19T06:11:47.898Z,26.52
2022-08-19T06:15:00.644Z,26.85
2022-08-19T06:18:04.633Z,27.05
2022-08-19T06:21:06.344Z,27.14
2022-08-19T06:24:10.550Z,26.93
2022-08-19T06:27:12.281Z,27.02
2022-08-19T06:30:14.553Z,27.26
2022-08-19T06:33:16.425Z,27.39
2022-08-19T06:36:35.028Z,27.31
2022-08-19T06:39:39.600Z,27.55
2022-08-19T06:42:44.840Z,27.47
2022-08-19T06:45:57.313Z,27.50
2022-08-19T06:49:01.886Z,27.85
2022-08-19T06:52:04.735Z,27.90
2022-08-19T06:55:06.979Z,27.49
2022-08-19T06:58:10.435Z,27.69
2022-08-19T07:01:12.215Z,27.77
2022-08-19T07:04:17.287Z,27.98
2022-08-19T07:07:22.162Z,28.41
2022-08-19T07:10:24.315Z,28.70
2022-08-19T07:13:27.627Z,29.03
2022-08-19T07:16:29.791Z,29.29
2022-08-19T07:19:32.471Z,29.33
2022-08-19T07:22:35.533Z,29.72
2022-08-19T07:25:38.942Z,30.13
2022-08-19T07:28:46.094Z,30.17
2022-08-19T07:31:57.508Z,30.35
2022-08-19T07:35:04.390Z,30.66
2022-08-19T07:38:06.112Z,30.89
2022-08-19T07:41:09.733Z,31.09
2022-08-19T07:44:12.381Z,31.43
2022-08-19T07:47:48.139Z,31.57
2022-08-19T07:50:38.346Z,31.56
2022-08-19T07:53:40.169Z,31.69
2022-08-19T07:56:42.084Z,32.07
2022-08-19T07:59:44.141Z,32.11
2022-08-19T08:02:45.876Z,32.11
2022-08-19T08:06:07.358Z,32.36
2022-08-19T08:09:13.595Z,32.53
2022-08-19T08:12:34.317Z,32.38
2022-08-19T08:15:42.741Z,32.29
2022-08-19T08:18:50.547Z,32.29
2022-08-19T08:21:57.609Z,32.57
2022-08-19T08:25:12.750Z,32.91
2022-08-19T08:28:17.969Z,33.45
2022-08-19T08:31:20.353Z,33.94
2022-08-19T08:34:22.291Z,34.12
2022-08-19T08:37:24.210Z,34.17
2022-08-19T08:40:32.300Z,34.13
2022-08-19T08:43:37.082Z,34.25
2022-08-19T08:46:43.358Z,34.69
2022-08-19T08:49:52.512Z,35.13
2022-08-19T08:52:57.838Z,35.48
2022-08-19T08:56:04.186Z,35.70
2022-08-19T08:59:14.268Z,35.77
2022-08-19T09:02:17.102Z,35.91
2022-08-19T09:05:25.918Z,36.16
2022-08-19T09:08:40.639Z,36.13
2022-08-19T09:11:45.827Z,36.19
2022-08-19T09:14:58.238Z,36.40
2022-08-19T09:18:02.893Z,36.28
2022-08-19T09:21:04.704Z,35.91
2022-08-19T09:24:07.212Z,35.89
2022-08-19T09:27:18.232Z,35.98
2022-08-19T09:30:25.027Z,36.42
2022-08-19T09:33:26.877Z,36.82
2022-08-19T09:36:34.576Z,36.82
2022-08-19T09:39:36.833Z,36.74
2022-08-19T09:42:49.644Z,36.81
2022-08-19T09:45:53.488Z,37.31
2022-08-19T09:48:57.887Z,37.68
2022-08-19T09:52:04.907Z,37.42
2022-08-19T09:55:08.529Z,37.61
2022-08-19T09:58:11.265Z,37.66
2022-08-19T10:01:25.511Z,37.91
2022-08-19T10:04:47.585Z,37.93
2022-08-19T10:07:49.676Z,38.09
2022-08-19T10:10:51.771Z,38.35
2022-08-19T10:13:53.732Z,38.19
2022-08-19T10:16:55.811Z,37.70
2022-08-19T10:19:57.538Z,37.17
2022-08-19T10:23:00.620Z,37.12
2022-08-19T10:26:07.008Z,36.88
2022-08-19T10:29:09.529Z,36.88
2022-08-19T10:32:11.493Z,37.08
2022-08-19T10:35:21.908Z,37.10
2022-08-19T10:38:31.269Z,37.49
2022-08-19T10:41:36.218Z,37.96
2022-08-19T10:44:38.056Z,38.29
2022-08-19T10:47:40.571Z,38.33
2022-08-19T10:51:00.853Z,38.42
2022-08-19T10:54:04.126Z,37.97
2022-08-19T10:57:08.709Z,37.90
2022-08-19T11:00:11.279Z,38.12
2022-08-19T11:03:13.272Z,38.10
2022-08-19T11:06:14.979Z,37.71
2022-08-19T11:09:19.738Z,37.86
2022-08-19T11:12:21.478Z,37.89
2022-08-19T11:15:23.524Z,37.16
2022-08-19T11:18:25.481Z,37.01
2022-08-19T11:21:33.313Z,36.98
2022-08-19T11:24:36.019Z,36.86
2022-08-19T11:27:45.756Z,37.40
2022-08-19T11:30:47.553Z,37.66
2022-08-19T11:33:54.551Z,38.09
2022-08-19T11:37:00.692Z,38.54
2022-08-19T11:40:02.436Z,38.97
2022-08-19T11:43:05.323Z,39.12
2022-08-19T11:46:09.616Z,39.61
2022-08-19T11:49:14.059Z,39.47
2022-08-19T11:52:16.469Z,39.07
2022-08-19T11:55:18.359Z,39.30
2022-08-19T11:58:20.295Z,39.09
2022-08-19T12:01:24.052Z,39.12
2022-08-19T12:04:25.903Z,39.56
2022-08-19T12:07:27.947Z,39.66
2022-08-19T12:10:29.757Z,38.81
2022-08-19T12:13:31.839Z,38.70
2022-08-19T12:16:34.135Z,38.33
2022-08-19T12:19:37.986Z,37.96
2022-08-19T12:22:42.165Z,37.95
2022-08-19T12:25:52.741Z,38.04
2022-08-19T12:28:54.854Z,37.63
2022-08-19T12:32:03.781Z,37.23
2022-08-19T12:35:07.988Z,37.31
2022-08-19T12:38:09.900Z,36.93
2022-08-19T12:41:15.107Z,36.72
2022-08-19T12:44:17.713Z,36.50
2022-08-19T12:47:22.065Z,36.63
2022-08-19T12:50:23.949Z,36.86
2022-08-19T12:53:26.059Z,36.92
2022-08-19T12:56:28.475Z,37.08
2022-08-19T12:59:30.381Z,37.66
2022-08-19T13:02:38.330Z,37.65
2022-08-19T13:05:41.516Z,37.91
2022-08-19T13:08:43.403Z,38.35
2022-08-19T13:11:48.412Z,38.54
2022-08-19T13:14:51.090Z,38.87
2022-08-19T13:17:54.911Z,38.26
2022-08-19T13:20:57.504Z,38.02
2022-08-19T13:23:59.720Z,37.80
2022-08-19T13:27:20.824Z,37.52
2022-08-19T13:30:42.074Z,37.61
2022-08-19T13:33:43.854Z,38.16
2022-08-19T13:36:45.976Z,38.59
2022-08-19T13:39:48.428Z,38.52
2022-08-19T13:42:52.761Z,38.11
2022-08-19T13:45:57.251Z,37.84
2022-08-19T13:48:59.437Z,37.80
2022-08-19T13:52:01.271Z,37.80
2022-08-19T13:55:04.359Z,37.79
2022-08-19T13:58:06.303Z,37.63
2022-08-19T14:01:08.676Z,37.42
2022-08-19T14:04:10.604Z,37.38
2022-08-19T14:07:12.382Z,37.27
2022-08-19T14:10:14.935Z,37.02
2022-08-19T14:13:21.180Z,36.82
2022-08-19T14:16:22.881Z,36.63
2022-08-19T14:19:24.682Z,36.52
2022-08-19T14:22:31.934Z,36.45
2022-08-19T14:25:35.068Z,36.45
2022-08-19T14:28:36.854Z,36.43
2022-08-19T14:31:40.894Z,37.10
2022-08-19T14:34:42.683Z,37.55
2022-08-19T14:37:56.081Z,37.72
2022-08-19T14:41:14.108Z,37.86
2022-08-19T14:44:15.974Z,37.75
2022-08-19T14:47:18.108Z,37.28
2022-08-19T14:50:21.431Z,36.87
2022-08-19T14:53:23.220Z,36.82
2022-08-19T14:56:27.981Z,37.09
2022-08-19T14:59:29.751Z,37.29
2022-08-19T15:02:34.594Z,37.33
2022-08-19T15:05:37.499Z,37.05
2022-08-19T15:08:41.177Z,36.72
2022-08-19T15:11:43.788Z,36.53
2022-08-19T15:14:51.271Z,36.37
2022-08-19T15:18:03.231Z,35.96
2022-08-19T15:21:05.832Z,35.48
2022-08-19T15:24:07.638Z,34.97
2022-08-19T15:27:09.328Z,34.57
2022-08-19T15:30:12.473Z,34.13
2022-08-19T15:33:15.384Z,33.63
2022-08-19T15:36:17.506Z,33.37
2022-08-19T15:39:21.706Z,33.27
2022-08-19T15:42:29.798Z,33.19
2022-08-19T15:45:33.012Z,32.94
2022-08-19T15:48:34.956Z,32.66
2022-08-19T15:51:39.224Z,32.49
2022-08-19T15:54:41.203Z,32.37
2022-08-19T15:58:01.720Z,32.23
2022-08-19T16:01:27.216Z,32.06
2022-08-19T16:04:47.874Z,31.91
2022-08-19T16:07:49.673Z,31.82
2022-08-19T16:10:51.368Z,31.82
2022-08-19T16:13:54.937Z,31.63
2022-08-19T16:16:57.136Z,31.38
2022-08-19T16:19:58.886Z,31.05
2022-08-19T16:23:03.492Z,30.68
2022-08-19T16:26:05.318Z,30.40
2022-08-19T16:29:11.964Z,30.32
2022-08-19T16:32:15.077Z,30.44
2022-08-19T16:35:16.863Z,30.51
2022-08-19T16:38:18.822Z,30.55
2022-08-19T16:41:21.437Z,30.59
2022-08-19T16:44:23.431Z,30.55
2022-08-19T16:47:25.326Z,30.47
2022-08-19T16:50:47.767Z,30.35
2022-08-19T16:53:49.078Z,30.22
2022-08-19T16:56:51.282Z,30.17
2022-08-19T16:59:52.990Z,30.10
2022-08-19T17:02:54.877Z,30.04
2022-08-19T17:06:02.642Z,29.95
2022-08-19T17:09:06.693Z,29.85
2022-08-19T17:12:08.665Z,29.81
2022-08-19T17:15:10.466Z,29.75
2022-08-19T17:18:13.647Z,29.65
2022-08-19T17:21:15.346Z,29.56
2022-08-19T17:24:17.177Z,29.46
2022-08-19T17:27:19.973Z,29.39
2022-08-19T17:30:22.726Z,29.28
2022-08-19T17:33:24.713Z,29.09
2022-08-19T17:36:29.411Z,29.00
2022-08-19T17:39:31.295Z,28.88
2022-08-19T17:42:40.278Z,28.73
2022-08-19T17:45:43.152Z,28.58
2022-08-19T17:48:51.725Z,28.40
2022-08-19T17:51:54.168Z,28.31
2022-08-19T17:54:56.632Z,28.12
2022-08-19T17:57:58.489Z,27.93
2022-08-19T18:01:01.729Z,27.71
2022-08-19T18:04:04.815Z,27.55
2022-08-19T18:07:06.721Z,27.46
2022-08-19T18:10:09.305Z,27.41
2022-08-19T18:13:17.683Z,27.31
2022-08-19T18:16:22.240Z,27.18
2022-08-19T18:19:25.452Z,26.98
2022-08-19T18:22:38.597Z,26.75
2022-08-19T18:25:43.629Z,26.56
2022-08-19T18:28:49.858Z,26.44
2022-08-19T18:31:51.885Z,26.35
2022-08-19T18:34:54.700Z,26.31
2022-08-19T18:37:59.125Z,26.31
2022-08-19T18:41:34.077Z,26.27
2022-08-19T18:44:59.744Z,26.24
2022-08-19T18:48:26.785Z,26.12
2022-08-19T18:51:32.878Z,25.98
2022-08-19T18:54:35.741Z,25.91
2022-08-19T18:57:37.660Z,25.87
2022-08-19T19:00:40.586Z,25.79
2022-08-19T19:03:53.688Z,25.75
2022-08-19T19:06:55.490Z,25.72
2022-08-19T19:09:57.302Z,25.69
2022-08-19T19:13:01.436Z,25.65
2022-08-19T19:16:04.176Z,25.61
2022-08-19T19:19:13.057Z,25.53
2022-08-19T19:22:19.557Z,25.46
2022-08-19T19:25:21.364Z,25.39
2022-08-19T19:28:28.366Z,25.30
2022-08-19T19:31:33.004Z,25.22
2022-08-19T19:34:37.778Z,25.15
2022-08-19T19:37:39.623Z,24.96
2022-08-19T19:40:41.419Z,24.66
2022-08-19T19:43:43.134Z,24.61
2022-08-19T19:46:45.280Z,24.76
2022-08-19T19:50:13.776Z,24.87
2022-08-19T19:53:15.226Z,25.04
2022-08-19T19:56:17.125Z,25.17
2022-08-19T19:59:19.435Z,25.32
2022-08-19T20:02:22.125Z,25.54
2022-08-19T20:05:25.101Z,25.72
2022-08-19T20:08:46.594Z,25.79
2022-08-19T20:11:53.488Z,25.73
2022-08-19T20:14:56.320Z,25.52
2022-08-19T20:17:59.738Z,25.28
2022-08-19T20:21:01.559Z,25.09
2022-08-19T20:24:09.365Z,24.95
2022-08-19T20:27:11.967Z,24.83
2022-08-19T20:30:19.527Z,24.73
2022-08-19T20:33:21.710Z,24.59
2022-08-19T20:36:24.913Z,24.42
2022-08-19T20:39:26.692Z,24.33
2022-08-19T20:42:28.622Z,24.24
2022-08-19T20:45:33.449Z,24.13
2022-08-19T20:48:38.621Z,24.02
2022-08-19T20:51:41.330Z,23.92
2022-08-19T20:54:43.300Z,23.84
2022-08-19T20:57:45.432Z,23.81
2022-08-19T21:00:48.267Z,23.72
2022-08-19T21:03:51.818Z,23.64
2022-08-19T21:06:54.859Z,23.57
2022-08-19T21:09:56.570Z,23.48
2022-08-19T21:12:58.826Z,23.45
2022-08-19T21:16:00.679Z,23.41
2022-08-19T21:19:04.665Z,23.37
2022-08-19T21:22:06.417Z,23.28
2022-08-19T21:25:08.344Z,23.21
2022-08-19T21:28:10.366Z,23.12
2022-08-19T21:31:12.229Z,23.04
2022-08-19T21:34:13.914Z,22.96
2022-08-19T21:37:25.602Z,22.90
2022-08-19T21:40:28.073Z,22.84
2022-08-19T21:43:29.937Z,22.80
2022-08-19T21:46:33.862Z,22.75
2022-08-19T21:49:38.622Z,22.70
2022-08-19T21:52:40.653Z,22.65
2022-08-19T21:55:42.389Z,22.60
2022-08-19T21:58:44.813Z,22.54
2022-08-19T22:01:50.585Z,22.50
2022-08-19T22:04:55.882Z,22.43
2022-08-19T22:07:59.365Z,22.38
2022-08-19T22:11:03.675Z,22.33
2022-08-19T22:14:05.885Z,22.28
2022-08-19T22:17:09.517Z,22.24
2022-08-19T22:20:18.676Z,22.22
2022-08-19T22:23:20.424Z,22.19
2022-08-19T22:26:22.577Z,22.18
2022-08-19T22:29:34.045Z,22.15
2022-08-19T22:32:36.924Z,22.09
2022-08-19T22:35:40.324Z,22.05
2022-08-19T22:38:42.167Z,22.01
2022-08-19T22:41:44.169Z,22.00
2022-08-19T22:44:46.326Z,21.99
2022-08-19T22:47:48.060Z,21.97
2022-08-19T22:51:08.848Z,21.94
2022-08-19T22:54:11.110Z,21.91
2022-08-19T22:57:13.824Z,21.88
2022-08-19T23:00:16.249Z,21.85
2022-08-19T23:03:18.186Z,21.84
2022-08-19T23:06:19.822Z,21.82
2022-08-19T23:09:23.502Z,21.79
2022-08-19T23:12:30.909Z,21.77
2022-08-19T23:15:33.671Z,21.77
2022-08-19T23:18:35.568Z,21.76
2022-08-19T23:21:41.520Z,21.76
2022-08-19T23:24:43.622Z,21.75
2022-08-19T23:28:04.594Z,21.75
2022-08-19T23:31:06.980Z,21.72
2022-08-19T23:34:09.005Z,21.71
2022-08-19T23:37:10.742Z,21.71
2022-08-19T23:40:12.533Z,21.76
2022-08-19T23:43:17.457Z,21.78
2022-08-19T23:46:28.296Z,21.79
2022-08-19T23:49:31.468Z,21.80
2022-08-19T23:52:34.795Z,21.81
2022-08-19T23:55:40.257Z,21.78
2022-08-19T23:58:42.096Z,21.78
